Terminal Aerodrome Forecast
Issued by NWS Louisville, KY

Home | Current Version | Previous Version | Text Only | Print | Product List | Glossary On
Versions: 1 2 3 4 5 6 7 8 9 10 11 12 13 14
000
FTUS43 KLMK 271120
TAFSDF
TAF
KSDF 271120Z 2712/2818 VRB04KT P6SM VCSH SCT040 BKN150
     FM271500 VRB04KT P6SM SCT040 BKN150
     FM271900 VRB04KT P6SM VCTS BKN040CB
     FM272300 VRB04KT P6SM SCT040=

USA.gov is the U.S. government's official web portal to all federal, state and local government web resources and services.